createdAt,value
2022-12-03T00:00:18.668Z,11.87
2022-12-03T00:02:53.594Z,12.07
2022-12-03T00:05:28.532Z,11.40
2022-12-03T00:08:03.876Z,11.47
2022-12-03T00:10:38.807Z,12.40
2022-12-03T00:13:13.704Z,12.30
2022-12-03T00:15:48.588Z,12.67
2022-12-03T00:18:23.459Z,13.07
2022-12-03T00:20:58.347Z,13.47
2022-12-03T00:23:35.950Z,12.87
2022-12-03T00:26:15.062Z,14.00
2022-12-03T00:28:49.945Z,11.63
2022-12-03T00:31:25.757Z,12.90
2022-12-03T00:34:00.630Z,11.80
2022-12-03T00:36:35.503Z,12.50
2022-12-03T00:39:10.354Z,12.50
2022-12-03T00:41:45.374Z,12.70
2022-12-03T00:44:20.238Z,11.60
2022-12-03T00:46:55.175Z,11.70
2022-12-03T00:49:30.076Z,13.60
2022-12-03T00:52:04.986Z,12.80
2022-12-03T00:54:39.844Z,10.73
2022-12-03T00:57:14.785Z,11.77
2022-12-03T00:59:49.603Z,12.13
2022-12-03T01:02:24.572Z,13.43
2022-12-03T01:04:59.670Z,10.20
2022-12-03T01:07:34.873Z,13.00
2022-12-03T01:10:10.633Z,13.13
2022-12-03T01:12:45.484Z,13.70
2022-12-03T01:15:20.388Z,13.50
2022-12-03T01:17:55.288Z,14.63
2022-12-03T01:20:30.189Z,13.00
2022-12-03T01:23:05.532Z,12.63
2022-12-03T01:25:40.446Z,12.27
2022-12-03T01:28:15.305Z,13.77
2022-12-03T01:31:08.736Z,12.77
2022-12-03T01:33:43.785Z,12.00
2022-12-03T01:36:18.669Z,12.20
2022-12-03T01:38:53.613Z,11.77
2022-12-03T01:41:29.344Z,13.03
2022-12-03T01:44:15.649Z,12.20
2022-12-03T01:46:52.267Z,11.87
2022-12-03T01:49:50.016Z,10.70
2022-12-03T01:52:32.826Z,12.73
2022-12-03T01:55:16.475Z,11.30
2022-12-03T01:57:56.299Z,12.10
2022-12-03T02:00:31.660Z,12.27
2022-12-03T02:03:22.742Z,11.07
2022-12-03T02:05:57.690Z,10.90
2022-12-03T02:08:39.100Z,11.57
2022-12-03T02:11:24.929Z,10.47
2022-12-03T02:14:06.736Z,10.80
2022-12-03T02:16:42.833Z,11.90
2022-12-03T02:19:27.791Z,9.50
2022-12-03T02:22:29.780Z,9.43
2022-12-03T02:25:19.882Z,9.37
2022-12-03T02:27:55.693Z,10.40
2022-12-03T02:30:31.671Z,8.80
2022-12-03T02:33:06.824Z,9.60
2022-12-03T02:35:41.843Z,10.00
2022-12-03T02:38:26.636Z,9.70
2022-12-03T02:41:07.615Z,9.33
2022-12-03T02:43:42.523Z,9.90
2022-12-03T02:46:17.438Z,9.80
2022-12-03T02:48:52.562Z,10.30
2022-12-03T02:51:27.596Z,9.47
2022-12-03T02:54:03.489Z,9.33
2022-12-03T02:56:38.511Z,10.03
2022-12-03T02:59:13.444Z,9.30
2022-12-03T03:01:48.490Z,9.67
2022-12-03T03:04:24.937Z,9.23
2022-12-03T03:06:59.955Z,9.10
2022-12-03T03:09:35.201Z,9.33
2022-12-03T03:12:10.804Z,10.40
2022-12-03T03:14:45.977Z,9.20
2022-12-03T03:17:20.980Z,9.23
2022-12-03T03:19:55.899Z,9.20
2022-12-03T03:22:41.061Z,9.10
2022-12-03T03:25:21.137Z,7.80
2022-12-03T03:27:56.023Z,8.57
2022-12-03T03:30:31.153Z,10.03
2022-12-03T03:33:06.728Z,9.67
2022-12-03T03:35:43.673Z,9.87
2022-12-03T03:38:20.591Z,9.33
2022-12-03T03:40:58.614Z,10.40
2022-12-03T03:43:35.266Z,9.80
2022-12-03T03:46:11.254Z,9.70
2022-12-03T03:48:48.598Z,10.20
2022-12-03T03:51:23.616Z,10.67
2022-12-03T03:53:58.806Z,8.77
2022-12-03T03:56:34.705Z,10.17
2022-12-03T03:59:09.696Z,10.90
2022-12-03T04:01:46.298Z,9.93
2022-12-03T04:04:24.233Z,8.97
2022-12-03T04:06:59.373Z,10.10
2022-12-03T04:09:34.260Z,10.80
2022-12-03T04:12:30.437Z,10.50
2022-12-03T04:15:06.415Z,10.43
2022-12-03T04:17:41.310Z,11.27
2022-12-03T04:20:16.958Z,11.20
2022-12-03T04:22:51.843Z,11.00
2022-12-03T04:25:45.079Z,11.40
2022-12-03T04:28:38.567Z,12.10
2022-12-03T04:31:31.847Z,12.13
2022-12-03T04:34:25.389Z,11.17
2022-12-03T04:37:00.306Z,10.90
2022-12-03T04:39:35.496Z,10.00
2022-12-03T04:42:10.467Z,10.80
2022-12-03T04:44:45.409Z,10.83
2022-12-03T04:47:21.838Z,11.67
2022-12-03T04:49:56.691Z,11.50
2022-12-03T04:52:31.544Z,12.03
2022-12-03T04:55:07.662Z,12.00
2022-12-03T04:57:42.579Z,11.10
2022-12-03T05:00:17.748Z,10.67
2022-12-03T05:02:52.823Z,11.27
2022-12-03T05:05:27.757Z,12.60
2022-12-03T05:08:02.641Z,14.03
2022-12-03T05:10:38.001Z,11.90
2022-12-03T05:13:12.891Z,11.77
2022-12-03T05:15:47.783Z,11.93
2022-12-03T05:18:22.673Z,10.60
2022-12-03T05:20:57.571Z,13.07
2022-12-03T05:23:32.478Z,11.73
2022-12-03T05:26:07.440Z,12.27
2022-12-03T05:28:42.348Z,12.80
2022-12-03T05:31:17.422Z,13.17
2022-12-03T05:33:52.411Z,14.00
2022-12-03T05:36:27.434Z,13.20
2022-12-03T05:39:02.289Z,12.23
2022-12-03T05:41:55.860Z,12.20
2022-12-03T05:44:30.739Z,12.73
2022-12-03T05:47:06.024Z,13.03
2022-12-03T05:49:41.106Z,12.80
2022-12-03T05:52:16.092Z,13.27
2022-12-03T05:54:51.303Z,13.20
2022-12-03T05:57:26.347Z,12.60
2022-12-03T06:00:01.252Z,13.80
2022-12-03T06:02:36.445Z,13.77
2022-12-03T06:05:13.771Z,12.13
2022-12-03T06:07:50.804Z,13.00
2022-12-03T06:10:26.447Z,11.37
2022-12-03T06:13:02.144Z,13.83
2022-12-03T06:15:43.307Z,11.13
2022-12-03T06:18:18.768Z,10.60
2022-12-03T06:20:53.670Z,13.50
2022-12-03T06:23:28.549Z,11.90
2022-12-03T06:26:03.604Z,13.03
2022-12-03T06:28:38.895Z,13.73
2022-12-03T06:31:14.192Z,11.80
2022-12-03T06:33:49.195Z,13.23
2022-12-03T06:36:26.682Z,14.90
2022-12-03T06:39:01.627Z,12.90
2022-12-03T06:41:36.621Z,13.77
2022-12-03T06:44:11.591Z,14.57
2022-12-03T06:46:46.578Z,12.93
2022-12-03T06:49:21.558Z,14.90
2022-12-03T06:51:56.451Z,15.17
2022-12-03T06:54:31.517Z,14.60
2022-12-03T06:57:06.467Z,14.67
2022-12-03T06:59:41.509Z,14.43
2022-12-03T07:02:16.411Z,14.97
2022-12-03T07:04:51.555Z,13.67
2022-12-03T07:07:26.599Z,14.47
2022-12-03T07:10:01.659Z,14.40
2022-12-03T07:12:36.623Z,15.80
2022-12-03T07:15:11.728Z,15.03
2022-12-03T07:17:46.677Z,15.37
2022-12-03T07:20:23.612Z,15.83
2022-12-03T07:22:58.551Z,14.10
2022-12-03T07:25:33.494Z,15.00
2022-12-03T07:28:08.403Z,15.97
2022-12-03T07:30:43.346Z,15.07
2022-12-03T07:33:18.306Z,15.50
2022-12-03T07:35:53.588Z,15.47
2022-12-03T07:38:28.487Z,13.70
2022-12-03T07:41:03.541Z,13.80
2022-12-03T07:43:38.625Z,14.10
2022-12-03T07:46:13.642Z,15.67
2022-12-03T07:48:48.726Z,13.63
2022-12-03T07:51:27.482Z,14.57
2022-12-03T07:54:07.115Z,14.10
2022-12-03T07:56:42.552Z,15.17
2022-12-03T07:59:18.120Z,15.23
2022-12-03T08:01:53.213Z,15.00
2022-12-03T08:04:28.618Z,13.57
2022-12-03T08:07:03.615Z,15.00
2022-12-03T08:09:40.942Z,14.63
2022-12-03T08:12:39.851Z,15.47
2022-12-03T08:15:23.734Z,14.33
2022-12-03T08:18:00.738Z,14.93
2022-12-03T08:20:41.460Z,15.23
2022-12-03T08:23:19.825Z,13.30
2022-12-03T08:25:54.836Z,14.00
2022-12-03T08:28:31.281Z,14.57
2022-12-03T08:31:32.349Z,13.97
2022-12-03T08:34:27.091Z,14.30
2022-12-03T08:37:15.827Z,14.67
2022-12-03T08:39:54.611Z,16.57
2022-12-03T08:42:41.789Z,14.97
2022-12-03T08:45:30.234Z,13.97
2022-12-03T08:48:39.273Z,14.70
2022-12-03T08:51:25.175Z,14.27
2022-12-03T08:54:11.220Z,16.10
2022-12-03T08:56:46.087Z,17.37
2022-12-03T08:59:25.969Z,16.20
2022-12-03T09:02:00.898Z,14.50
2022-12-03T09:04:47.776Z,14.90
2022-12-03T09:07:22.719Z,13.90
2022-12-03T09:09:57.611Z,13.97
2022-12-03T09:12:32.475Z,12.53
2022-12-03T09:15:08.384Z,14.67
2022-12-03T09:17:43.402Z,12.43
2022-12-03T09:20:18.308Z,14.57
2022-12-03T09:22:53.200Z,14.03
2022-12-03T09:25:28.094Z,14.20
2022-12-03T09:28:02.971Z,13.00
2022-12-03T09:30:38.173Z,12.50
2022-12-03T09:33:13.984Z,15.30
2022-12-03T09:35:48.951Z,13.50
2022-12-03T09:38:23.878Z,13.07
2022-12-03T09:40:59.935Z,13.20
2022-12-03T09:44:02.622Z,12.40
2022-12-03T09:46:30.510Z,13.40
2022-12-03T09:49:13.983Z,11.80
2022-12-03T09:51:50.692Z,11.27
2022-12-03T09:54:29.286Z,11.20
2022-12-03T09:57:04.550Z,13.33
2022-12-03T09:59:39.501Z,11.23
2022-12-03T10:02:26.924Z,11.70
2022-12-03T10:05:02.045Z,11.23
2022-12-03T10:07:37.761Z,12.77
2022-12-03T10:10:22.832Z,10.60
2022-12-03T10:12:57.744Z,12.23
2022-12-03T10:15:33.393Z,13.77
2022-12-03T10:18:30.631Z,13.00
2022-12-03T10:21:19.205Z,12.13
2022-12-03T10:24:22.998Z,11.50
2022-12-03T10:27:03.068Z,12.57
2022-12-03T10:29:38.158Z,12.80
2022-12-03T10:32:13.188Z,11.90
2022-12-03T10:34:48.087Z,13.13
2022-12-03T10:37:23.171Z,13.23
2022-12-03T10:40:12.174Z,12.00
2022-12-03T10:42:47.083Z,12.50
2022-12-03T10:45:23.556Z,12.27
2022-12-03T10:48:21.064Z,11.50
2022-12-03T10:51:03.921Z,13.10
2022-12-03T10:53:41.083Z,12.00
2022-12-03T10:56:26.571Z,12.50
2022-12-03T10:59:01.438Z,12.07
2022-12-03T11:01:36.842Z,13.10
2022-12-03T11:04:22.119Z,12.80
2022-12-03T11:06:57.032Z,11.97
2022-12-03T11:09:33.534Z,12.27
2022-12-03T11:12:27.033Z,12.17
2022-12-03T11:15:06.635Z,14.27
2022-12-03T11:17:47.498Z,11.83
2022-12-03T11:20:25.056Z,15.03
2022-12-03T11:23:00.412Z,13.63
2022-12-03T11:25:47.841Z,14.97
2022-12-03T11:28:32.961Z,13.10
2022-12-03T11:31:12.178Z,12.53
2022-12-03T11:33:47.111Z,13.33
2022-12-03T11:36:42.076Z,12.10
2022-12-03T11:39:51.741Z,11.77
2022-12-03T11:42:39.272Z,11.93
2022-12-03T11:45:37.282Z,11.70
2022-12-03T11:48:15.181Z,10.13
2022-12-03T11:50:53.038Z,12.17
2022-12-03T11:53:35.826Z,10.33
2022-12-03T11:56:27.136Z,10.70
2022-12-03T11:59:11.390Z,9.20
2022-12-03T12:01:46.931Z,9.37
2022-12-03T12:04:37.945Z,8.90
2022-12-03T12:07:12.910Z,9.77
2022-12-03T12:09:55.198Z,9.90
2022-12-03T12:12:51.074Z,8.10
2022-12-03T12:15:44.304Z,9.00
2022-12-03T12:18:51.155Z,9.60
2022-12-03T12:21:47.788Z,9.10
2022-12-03T12:24:28.859Z,8.77
2022-12-03T12:27:29.518Z,8.90
2022-12-03T12:30:17.089Z,7.97
2022-12-03T12:33:23.351Z,9.67
2022-12-03T12:35:58.359Z,9.57
2022-12-03T12:38:33.262Z,8.80
2022-12-03T12:41:10.460Z,10.07
2022-12-03T12:43:45.424Z,9.53
2022-12-03T12:46:46.560Z,9.10
2022-12-03T12:49:15.875Z,9.77
2022-12-03T12:51:50.968Z,9.63
2022-12-03T12:54:25.859Z,8.70
2022-12-03T12:57:00.779Z,8.97
2022-12-03T12:59:35.868Z,9.20
2022-12-03T13:02:58.732Z,9.87
2022-12-03T13:05:41.567Z,9.10
2022-12-03T13:08:40.534Z,9.30
2022-12-03T13:11:42.145Z,7.90
2022-12-03T13:14:23.892Z,10.80
2022-12-03T13:17:01.759Z,10.33
2022-12-03T13:19:48.306Z,9.20
2022-12-03T13:22:25.805Z,9.17
2022-12-03T13:28:33.689Z,9.70
2022-12-03T13:31:40.592Z,10.60
2022-12-03T13:34:33.402Z,10.00
2022-12-03T13:37:34.133Z,10.70
2022-12-03T13:40:27.679Z,10.57
2022-12-03T13:43:12.296Z,11.13
2022-12-03T13:45:51.361Z,10.20
2022-12-03T13:48:32.171Z,11.30
2022-12-03T13:51:31.923Z,9.70
2022-12-03T13:54:16.217Z,10.40
2022-12-03T13:56:51.248Z,9.87
2022-12-03T13:59:26.552Z,9.60
2022-12-03T14:02:01.508Z,9.30
2022-12-03T14:04:36.604Z,10.63
2022-12-03T14:07:11.473Z,10.37
2022-12-03T14:09:46.359Z,9.80
2022-12-03T14:12:26.981Z,10.40
2022-12-03T14:15:04.631Z,10.57
2022-12-03T14:17:39.543Z,10.40
2022-12-03T14:20:15.589Z,11.60
2022-12-03T14:22:52.941Z,9.90
2022-12-03T14:25:32.592Z,9.37
2022-12-03T14:28:10.302Z,10.00
2022-12-03T14:30:45.229Z,9.30
2022-12-03T14:33:20.114Z,9.37
2022-12-03T14:35:56.232Z,9.97
2022-12-03T14:38:31.391Z,9.63
2022-12-03T14:41:26.352Z,10.70
2022-12-03T14:44:01.228Z,9.23
2022-12-03T14:46:36.143Z,10.33
2022-12-03T14:49:11.262Z,9.60
2022-12-03T14:51:46.146Z,9.90
2022-12-03T14:54:21.897Z,12.70
2022-12-03T14:56:56.953Z,8.87
2022-12-03T14:59:31.899Z,10.73
2022-12-03T15:02:07.121Z,9.47
2022-12-03T15:04:42.402Z,9.77
2022-12-03T15:07:17.302Z,8.83
2022-12-03T15:09:52.540Z,9.57
2022-12-03T15:12:27.681Z,9.97
2022-12-03T15:15:02.561Z,8.20
2022-12-03T15:17:37.481Z,8.80
2022-12-03T15:20:13.021Z,9.07
2022-12-03T15:22:47.946Z,8.10
2022-12-03T15:25:25.562Z,9.27
2022-12-03T15:28:00.774Z,8.17
2022-12-03T15:30:36.105Z,7.60
2022-12-03T15:33:11.228Z,9.17
2022-12-03T15:35:46.268Z,8.73
2022-12-03T15:38:21.417Z,9.57
2022-12-03T15:40:56.764Z,9.40
2022-12-03T15:43:31.733Z,8.57
2022-12-03T15:46:06.758Z,8.53
2022-12-03T15:48:41.975Z,8.23
2022-12-03T15:51:17.217Z,8.07
2022-12-03T15:53:52.302Z,8.50
2022-12-03T15:56:27.248Z,8.50
2022-12-03T15:59:02.291Z,7.57
2022-12-03T16:01:37.290Z,8.70
2022-12-03T16:04:12.332Z,8.13
2022-12-03T16:06:47.474Z,8.53
2022-12-03T16:09:26.937Z,7.43
2022-12-03T16:12:02.232Z,7.77
2022-12-03T16:14:37.246Z,8.20
2022-12-03T16:17:12.279Z,8.60
2022-12-03T16:19:47.494Z,8.87
2022-12-03T16:22:22.437Z,8.43
2022-12-03T16:24:57.397Z,7.97
2022-12-03T16:27:32.742Z,7.80
2022-12-03T16:30:08.873Z,8.40
2022-12-03T16:32:44.133Z,7.43
2022-12-03T16:35:19.220Z,8.50
2022-12-03T16:37:54.267Z,9.43
2022-12-03T16:40:29.213Z,9.67
2022-12-03T16:43:04.928Z,7.73
2022-12-03T16:45:42.480Z,7.40
2022-12-03T16:48:18.707Z,7.63
2022-12-03T16:50:53.876Z,7.10
2022-12-03T16:53:28.870Z,8.20
2022-12-03T16:56:04.042Z,7.67
2022-12-03T16:58:39.143Z,8.90
2022-12-03T17:01:14.451Z,8.20
2022-12-03T17:03:49.502Z,8.70
2022-12-03T17:06:24.560Z,8.37
2022-12-03T17:08:59.653Z,8.20
2022-12-03T17:11:34.570Z,8.47
2022-12-03T17:14:09.535Z,8.27
2022-12-03T17:16:44.514Z,9.00
2022-12-03T17:19:21.544Z,9.93
2022-12-03T17:21:56.497Z,9.30
2022-12-03T17:24:31.709Z,9.47
2022-12-03T17:27:07.877Z,8.90
2022-12-03T17:29:42.928Z,8.80
2022-12-03T17:32:17.820Z,8.63
2022-12-03T17:34:52.884Z,8.80
2022-12-03T17:37:27.782Z,9.20
2022-12-03T17:40:06.626Z,8.77
2022-12-03T17:42:41.625Z,8.10
2022-12-03T17:45:16.670Z,10.10
2022-12-03T17:47:51.683Z,9.87
2022-12-03T17:50:26.585Z,9.67
2022-12-03T17:53:03.759Z,9.17
2022-12-03T17:55:44.512Z,9.70
2022-12-03T17:58:20.412Z,8.93
2022-12-03T18:01:01.824Z,9.53
2022-12-03T18:03:38.307Z,9.17
2022-12-03T18:06:13.345Z,9.33
2022-12-03T18:08:48.275Z,9.70
2022-12-03T18:11:23.539Z,9.10
2022-12-03T18:13:58.741Z,9.73
2022-12-03T18:16:33.789Z,8.57
2022-12-03T18:19:08.722Z,8.63
2022-12-03T18:21:43.634Z,10.50
2022-12-03T18:24:18.508Z,10.10
2022-12-03T18:26:53.387Z,9.90
2022-12-03T18:29:28.309Z,10.10
2022-12-03T18:32:03.379Z,9.60
2022-12-03T18:34:38.285Z,9.70
2022-12-03T18:37:14.269Z,12.13
2022-12-03T18:39:49.278Z,10.40
2022-12-03T18:42:24.667Z,10.70
2022-12-03T18:44:59.774Z,9.83
2022-12-03T18:47:34.740Z,10.00
2022-12-03T18:50:11.788Z,10.10
2022-12-03T18:52:46.643Z,11.63
2022-12-03T18:55:22.186Z,11.03
2022-12-03T18:57:57.098Z,11.17
2022-12-03T19:00:32.383Z,10.23
2022-12-03T19:03:08.039Z,9.87
2022-12-03T19:05:42.979Z,11.30
2022-12-03T19:08:19.236Z,10.17
2022-12-03T19:10:59.781Z,10.97
2022-12-03T19:13:34.714Z,11.10
2022-12-03T19:16:12.116Z,10.37
2022-12-03T19:18:47.081Z,11.77
2022-12-03T19:21:22.242Z,11.40
2022-12-03T19:24:23.211Z,12.43
2022-12-03T19:26:54.760Z,12.03
2022-12-03T19:29:29.775Z,11.40
2022-12-03T19:32:05.282Z,12.17
2022-12-03T19:34:40.493Z,13.00
2022-12-03T19:37:15.536Z,13.00
2022-12-03T19:39:54.235Z,11.97
2022-12-03T19:42:31.085Z,11.93
2022-12-03T19:45:07.452Z,11.40
2022-12-03T19:47:42.400Z,11.50
2022-12-03T19:50:22.666Z,12.83
2022-12-03T19:52:58.044Z,13.67
2022-12-03T19:55:35.439Z,12.50
2022-12-03T19:58:10.317Z,12.80
2022-12-03T20:00:45.276Z,12.03
2022-12-03T20:03:21.449Z,15.10
2022-12-03T20:05:59.913Z,14.20
2022-12-03T20:08:38.126Z,14.87
2022-12-03T20:11:22.814Z,12.80
2022-12-03T20:14:01.296Z,13.90
2022-12-03T20:16:36.683Z,13.87
2022-12-03T20:19:15.283Z,14.53
2022-12-03T20:21:50.132Z,14.07
2022-12-03T20:24:25.194Z,14.67
2022-12-03T20:27:00.102Z,13.37
2022-12-03T20:29:35.085Z,14.77
2022-12-03T20:32:10.209Z,14.20
2022-12-03T20:34:45.270Z,14.73
2022-12-03T20:37:20.164Z,14.30
2022-12-03T20:39:55.419Z,14.90
2022-12-03T20:42:30.605Z,14.93
2022-12-03T20:45:06.282Z,16.23
2022-12-03T20:47:41.562Z,13.80
2022-12-03T20:50:16.496Z,13.13
2022-12-03T20:53:09.737Z,15.10
2022-12-03T20:55:55.049Z,15.07
2022-12-03T20:58:31.547Z,13.30
2022-12-03T21:01:15.587Z,14.03
2022-12-03T21:03:53.228Z,14.87
2022-12-03T21:06:29.957Z,14.30
2022-12-03T21:09:07.321Z,15.80
2022-12-03T21:11:42.686Z,15.57
2022-12-03T21:14:17.688Z,15.37
2022-12-03T21:17:07.678Z,15.37
2022-12-03T21:19:43.542Z,15.03
2022-12-03T21:22:18.519Z,15.03
2022-12-03T21:24:53.445Z,15.07
2022-12-03T21:27:28.493Z,15.37
2022-12-03T21:30:04.040Z,13.07
2022-12-03T21:32:39.784Z,15.87
2022-12-03T21:35:14.818Z,14.40
2022-12-03T21:37:50.192Z,15.43
2022-12-03T21:40:25.337Z,14.50
2022-12-03T21:43:00.292Z,14.90
2022-12-03T21:45:35.125Z,13.97
2022-12-03T21:48:10.609Z,13.93
2022-12-03T21:50:46.056Z,14.07
2022-12-03T21:53:20.900Z,14.00
2022-12-03T21:55:56.167Z,15.10
2022-12-03T21:58:31.055Z,16.70
2022-12-03T22:01:20.164Z,13.63
2022-12-03T22:03:55.253Z,13.97
2022-12-03T22:06:30.222Z,15.20
2022-12-03T22:09:05.111Z,14.63
2022-12-03T22:11:40.037Z,15.53
2022-12-03T22:14:15.037Z,15.53
2022-12-03T22:16:49.917Z,14.80
2022-12-03T22:19:25.748Z,15.40
2022-12-03T22:22:00.616Z,13.43
2022-12-03T22:24:35.530Z,15.13
2022-12-03T22:27:10.404Z,16.50
2022-12-03T22:29:45.301Z,13.93
2022-12-03T22:32:20.264Z,15.07
2022-12-03T22:34:55.163Z,14.30
2022-12-03T22:37:30.016Z,13.50
2022-12-03T22:40:05.754Z,16.27
2022-12-03T22:42:40.666Z,12.63
2022-12-03T22:45:15.618Z,14.60
2022-12-03T22:47:50.490Z,13.73
2022-12-03T22:50:25.371Z,13.40
2022-12-03T22:53:00.362Z,12.40
2022-12-03T22:55:35.254Z,14.13
2022-12-03T22:58:11.012Z,13.33
2022-12-03T23:00:45.888Z,13.10
2022-12-03T23:03:22.072Z,13.60
2022-12-03T23:05:57.004Z,13.53
2022-12-03T23:08:31.853Z,13.60
2022-12-03T23:11:07.699Z,13.50
2022-12-03T23:13:42.740Z,12.40
2022-12-03T23:16:22.487Z,11.30
2022-12-03T23:18:59.799Z,12.60
2022-12-03T23:21:35.726Z,12.63
2022-12-03T23:24:10.635Z,13.40
2022-12-03T23:26:45.522Z,13.10
2022-12-03T23:29:20.488Z,13.00
2022-12-03T23:31:57.200Z,14.00
2022-12-03T23:34:32.142Z,13.13
2022-12-03T23:37:07.075Z,13.77
2022-12-03T23:39:42.050Z,11.90
2022-12-03T23:42:17.132Z,12.73
2022-12-03T23:44:52.097Z,11.97
2022-12-03T23:47:26.952Z,12.20
2022-12-03T23:50:02.519Z,11.67
2022-12-03T23:52:37.640Z,11.37
2022-12-03T23:55:12.490Z,10.73
2022-12-03T23:57:47.434Z,10.87
